createdAt,value
2023-01-18T00:04:57.761Z,95725.25
2023-01-18T00:10:01.882Z,95736.81
2023-01-18T00:15:04.931Z,95734.31
2023-01-18T00:20:11.633Z,95731.69
2023-01-18T00:25:16.394Z,95729.63
2023-01-18T00:30:21.623Z,95739.13
2023-01-18T00:35:24.699Z,95734.03
2023-01-18T00:40:30.204Z,95724.13
2023-01-18T00:45:33.009Z,95727.44
2023-01-18T00:50:35.790Z,95729.88
2023-01-18T00:55:39.880Z,95727.69
2023-01-18T01:00:42.794Z,95729.31
2023-01-18T01:06:03.307Z,95724.75
2023-01-18T01:11:09.590Z,95734.94
2023-01-18T01:16:30.060Z,95740.13
2023-01-18T01:21:50.560Z,95745.78
2023-01-18T01:26:54.900Z,95754.50
2023-01-18T01:31:57.648Z,95755.06
2023-01-18T01:37:00.688Z,95762.75
2023-01-18T01:42:04.961Z,95762.75
2023-01-18T01:47:12.899Z,95772.00
2023-01-18T01:52:20.776Z,95780.69
2023-01-18T01:57:28.608Z,95792.72
2023-01-18T02:02:33.571Z,95778.78
2023-01-18T02:07:36.940Z,95784.00
2023-01-18T02:12:43.461Z,95782.25
2023-01-18T02:18:08.034Z,95794.38
2023-01-18T02:23:34.993Z,95795.72
2023-01-18T02:28:42.613Z,95798.31
2023-01-18T02:33:49.878Z,95795.81
2023-01-18T02:38:57.098Z,95800.50
2023-01-18T02:44:19.000Z,95810.13
2023-01-18T02:49:27.239Z,95822.41
2023-01-18T02:54:32.237Z,95825.16
2023-01-18T02:59:41.937Z,95832.44
2023-01-18T03:04:54.402Z,95832.28
2023-01-18T03:09:58.832Z,95831.59
2023-01-18T03:15:13.001Z,95836.25
2023-01-18T03:20:20.370Z,95847.94
2023-01-18T03:25:29.370Z,95857.00
2023-01-18T03:30:53.106Z,95858.13
2023-01-18T03:35:58.095Z,95865.13
2023-01-18T03:41:03.244Z,95883.44
2023-01-18T03:46:08.252Z,95897.47
2023-01-18T03:51:17.092Z,95898.31
2023-01-18T03:56:25.272Z,95905.47
2023-01-18T04:01:29.805Z,95910.56
2023-01-18T04:06:33.725Z,95914.13
2023-01-18T04:25:01.881Z,95930.59
2023-01-18T04:30:06.254Z,95939.25
2023-01-18T04:35:09.691Z,95942.13
2023-01-18T04:40:14.479Z,95942.38
2023-01-18T04:45:18.474Z,95936.69
2023-01-18T04:50:21.534Z,95948.00
2023-01-18T04:55:25.679Z,95956.56
2023-01-18T05:00:28.850Z,95969.63
2023-01-18T05:05:31.596Z,95977.34
2023-01-18T05:10:36.127Z,95987.44
2023-01-18T05:15:39.044Z,95987.69
2023-01-18T05:20:41.885Z,96001.81
2023-01-18T05:25:45.983Z,96008.00
2023-01-18T05:30:50.115Z,96024.53
2023-01-18T05:35:54.719Z,96018.47
2023-01-18T05:40:59.048Z,96026.47
2023-01-18T05:46:01.972Z,96034.41
2023-01-18T05:51:09.411Z,96040.59
2023-01-18T05:56:14.288Z,96056.28
2023-01-18T06:01:17.170Z,96061.06
2023-01-18T06:06:20.066Z,96061.06
2023-01-18T06:11:24.313Z,96069.19
2023-01-18T06:16:27.121Z,96083.31
2023-01-18T06:21:29.895Z,96089.28
2023-01-18T06:26:36.338Z,96089.84
2023-01-18T06:31:39.188Z,96095.22
2023-01-18T06:36:42.143Z,96101.63
2023-01-18T06:41:46.343Z,96110.75
2023-01-18T06:46:49.381Z,96122.38
2023-01-18T06:51:52.061Z,96129.97
2023-01-18T06:56:56.427Z,96148.59
2023-01-18T07:01:59.297Z,96165.06
2023-01-18T07:07:02.124Z,96167.22
2023-01-18T07:12:07.607Z,96175.03
2023-01-18T07:17:10.552Z,96185.47
2023-01-18T07:22:14.383Z,96189.13
2023-01-18T07:27:19.403Z,96208.25
2023-01-18T07:32:22.161Z,96206.34
2023-01-18T07:37:24.987Z,96222.50
2023-01-18T07:42:29.122Z,96233.78
2023-01-18T07:47:32.056Z,96235.31
2023-01-18T07:52:35.145Z,96247.34
2023-01-18T07:57:39.488Z,96254.59
2023-01-18T08:02:42.481Z,96262.09
2023-01-18T08:07:46.764Z,96278.63
2023-01-18T08:12:51.426Z,96274.81
2023-01-18T08:17:55.415Z,96281.13
2023-01-18T08:23:00.658Z,96286.75
2023-01-18T08:28:06.494Z,96299.34
2023-01-18T08:33:09.751Z,96303.19
2023-01-18T08:38:13.771Z,96313.19
2023-01-18T08:43:18.385Z,96317.56
2023-01-18T08:48:21.196Z,96320.56
2023-01-18T08:53:24.118Z,96338.03
2023-01-18T08:58:28.168Z,96340.06
2023-01-18T09:03:30.851Z,96347.34
2023-01-18T09:08:34.446Z,96359.13
2023-01-18T09:13:58.581Z,96359.50
2023-01-18T09:19:06.221Z,96362.66
2023-01-18T09:24:09.378Z,96362.09
2023-01-18T09:29:13.795Z,96372.91
2023-01-18T09:34:19.957Z,96386.38
2023-01-18T09:39:24.132Z,96396.97
2023-01-18T09:44:30.936Z,96406.75
2023-01-18T09:49:37.920Z,96423.06
2023-01-18T09:54:45.863Z,96415.81
2023-01-18T09:59:55.501Z,96422.81
2023-01-18T10:05:05.613Z,96431.63
2023-01-18T10:10:15.950Z,96434.34
2023-01-18T10:15:22.484Z,96435.84
2023-01-18T10:20:36.764Z,96433.81
2023-01-18T10:25:43.374Z,96440.47
2023-01-18T10:31:01.617Z,96449.19
2023-01-18T10:36:12.044Z,96452.06
2023-01-18T10:41:20.677Z,96453.81
2023-01-18T10:46:26.284Z,96464.16
2023-01-18T10:51:32.637Z,96458.91
2023-01-18T10:56:36.114Z,96458.16
2023-01-18T11:01:55.092Z,96458.75
2023-01-18T11:07:01.312Z,96468.53
2023-01-18T11:12:34.717Z,96470.66
2023-01-18T11:17:38.930Z,96477.72
2023-01-18T11:22:55.026Z,96477.41
2023-01-18T11:28:03.183Z,96469.78
2023-01-18T11:33:07.372Z,96474.03
2023-01-18T11:38:19.517Z,96475.56
2023-01-18T11:43:27.945Z,96483.91
2023-01-18T11:48:39.818Z,96486.59
2023-01-18T11:53:50.824Z,96476.84
2023-01-18T11:58:53.743Z,96480.31
2023-01-18T12:04:03.507Z,96475.88
2023-01-18T12:09:20.161Z,96483.38
2023-01-18T12:14:47.515Z,96488.53
2023-01-18T12:20:03.389Z,96495.56
2023-01-18T12:25:22.927Z,96504.19
2023-01-18T12:30:44.323Z,96494.03
2023-01-18T12:36:04.999Z,96501.41
2023-01-18T12:41:32.561Z,96512.78
2023-01-18T12:46:44.739Z,96525.53
2023-01-18T12:51:53.385Z,96524.41
2023-01-18T12:56:58.949Z,96523.97
2023-01-18T13:02:13.812Z,96520.63
2023-01-18T13:07:23.664Z,96527.56
2023-01-18T13:12:27.583Z,96537.66
2023-01-18T13:17:40.102Z,96537.66
2023-01-18T13:22:57.500Z,96547.06
2023-01-18T13:28:01.849Z,96545.97
2023-01-18T13:33:13.871Z,96552.75
2023-01-18T13:38:27.520Z,96553.69
2023-01-18T13:44:03.835Z,96568.34
2023-01-18T13:49:37.818Z,96579.84
2023-01-18T13:55:03.840Z,96588.94
2023-01-18T14:00:12.770Z,96590.00
2023-01-18T14:05:25.108Z,96605.97
2023-01-18T14:10:33.226Z,96610.47
2023-01-18T14:15:54.398Z,96610.81
2023-01-18T14:21:11.697Z,96625.16
2023-01-18T14:26:19.499Z,96633.94
2023-01-18T14:36:54.998Z,96638.81
2023-01-18T14:42:02.815Z,96655.09
2023-01-18T14:47:23.911Z,96658.00
2023-01-18T14:52:31.500Z,96663.47
2023-01-18T14:57:35.648Z,96657.94
2023-01-18T15:02:39.794Z,96670.06
2023-01-18T15:07:44.493Z,96673.22
2023-01-18T15:12:52.990Z,96685.03
2023-01-18T15:17:58.478Z,96682.31
2023-01-18T15:23:01.900Z,96692.28
2023-01-18T15:28:22.774Z,96689.59
2023-01-18T15:33:28.167Z,96700.38
2023-01-18T15:38:31.339Z,96701.81
2023-01-18T15:43:39.255Z,96709.97
2023-01-18T15:48:50.032Z,96724.03
2023-01-18T15:53:56.420Z,96724.16
2023-01-18T15:59:03.194Z,96734.84
2023-01-18T16:04:22.116Z,96734.13
2023-01-18T16:09:25.498Z,96739.44
2023-01-18T16:14:36.283Z,96743.47
2023-01-18T16:19:43.410Z,96761.81
2023-01-18T16:24:50.860Z,96773.41
2023-01-18T16:29:57.313Z,96777.56
2023-01-18T16:35:01.954Z,96776.38
2023-01-18T16:40:08.743Z,96787.59
2023-01-18T16:45:15.375Z,96784.59
2023-01-18T16:50:19.895Z,96799.56
2023-01-18T16:55:23.294Z,96805.31
2023-01-18T17:00:32.272Z,96815.56
2023-01-18T17:05:34.962Z,96823.13
2023-01-18T17:10:39.964Z,96826.88
2023-01-18T17:15:45.409Z,96831.59
2023-01-18T17:20:48.287Z,96838.78
2023-01-18T17:25:51.028Z,96852.72
2023-01-18T17:30:55.996Z,96864.22
2023-01-18T17:35:58.803Z,96863.59
2023-01-18T17:41:01.633Z,96869.69
2023-01-18T17:46:06.863Z,96883.38
2023-01-18T17:51:11.511Z,96887.97
2023-01-18T17:56:15.852Z,96895.34
2023-01-18T18:01:20.944Z,96896.09
2023-01-18T18:06:31.252Z,96905.25
2023-01-18T18:11:34.480Z,96915.84
2023-01-18T18:16:43.451Z,96922.91
2023-01-18T18:21:46.840Z,96916.88
2023-01-18T18:26:49.639Z,96921.38
2023-01-18T18:31:53.861Z,96927.91
2023-01-18T18:36:56.638Z,96931.53
2023-01-18T18:41:59.587Z,96940.06
2023-01-18T18:47:05.648Z,96947.31
2023-01-18T18:52:09.671Z,96946.19
2023-01-18T18:57:12.904Z,96957.38
2023-01-18T19:02:17.192Z,96961.19
2023-01-18T19:07:20.103Z,96969.13
2023-01-18T19:12:23.086Z,96969.88
2023-01-18T19:17:30.848Z,96976.66
2023-01-18T19:22:34.065Z,96983.00
2023-01-18T19:27:36.944Z,96989.97
2023-01-18T19:32:41.117Z,96986.41
2023-01-18T19:37:44.046Z,96986.78
2023-01-18T19:42:54.527Z,96985.19
2023-01-18T19:48:00.592Z,96985.28
2023-01-18T19:53:03.684Z,96994.97
2023-01-18T19:58:06.704Z,96993.84
2023-01-18T20:03:13.829Z,97002.16
2023-01-18T20:08:16.632Z,97002.69
2023-01-18T20:13:19.848Z,97005.47
2023-01-18T20:18:23.901Z,97010.19
2023-01-18T20:23:26.775Z,97016.34
2023-01-18T20:28:29.746Z,97010.63
2023-01-18T20:33:35.466Z,97016.75
2023-01-18T20:38:38.729Z,97024.34
2023-01-18T20:43:41.567Z,97029.47
2023-01-18T20:48:45.648Z,97025.94
2023-01-18T20:53:48.327Z,97043.44
2023-01-18T20:58:51.266Z,97049.47
2023-01-18T21:03:56.270Z,97052.66
2023-01-18T21:09:01.020Z,97062.31
2023-01-18T21:14:04.067Z,97066.19
2023-01-18T21:19:09.974Z,97074.03
2023-01-18T21:24:12.832Z,97075.53
2023-01-18T21:29:15.777Z,97072.00
2023-01-18T21:34:19.954Z,97081.78
2023-01-18T21:39:25.747Z,97086.28
2023-01-18T21:44:46.320Z,97084.69
2023-01-18T21:50:17.470Z,97091.66
2023-01-18T21:55:21.049Z,97093.69
2023-01-18T22:00:24.123Z,97099.06
2023-01-18T22:05:28.529Z,97104.28
2023-01-18T22:10:31.332Z,97117.03
2023-01-18T22:15:34.155Z,97116.69
2023-01-18T22:20:38.497Z,97121.16
2023-01-18T22:25:41.380Z,97127.13
2023-01-18T22:30:44.133Z,97136.91
2023-01-18T22:35:48.363Z,97145.38
2023-01-18T22:40:51.227Z,97145.16
2023-01-18T22:45:57.212Z,97148.59
2023-01-18T22:51:02.303Z,97148.19
2023-01-18T22:56:07.522Z,97149.59
2023-01-18T23:01:18.760Z,97157.66
2023-01-18T23:06:22.992Z,97164.63
2023-01-18T23:11:27.905Z,97157.53
2023-01-18T23:16:48.440Z,97158.13
2023-01-18T23:21:53.368Z,97154.75
2023-01-18T23:26:56.136Z,97149.72
2023-01-18T23:31:59.759Z,97159.59
2023-01-18T23:37:03.940Z,97160.44
2023-01-18T23:42:24.493Z,97153.81
2023-01-18T23:47:44.737Z,97152.34
2023-01-18T23:53:06.693Z,97155.88
2023-01-18T23:58:09.564Z,97156.47
